Time;durP1;ratioP1;P1;durP2;ratioP2;P2;SDS_P1;SDS_P2;PMS_P1;PMS_P2;Temp;Humidity;BMP_temperature;BMP_pressure;BME280_temperature;BME280_humidity;BME280_pressure;Samples;Min_cycle;Max_cycle;Signal;HPM_P1;HPM_P2
2022/11/17 00:00:05;;;;;;;28.40;20.35;;;332.90;2329.60;;;;;;5155583;27;20030;-58
2022/11/17 00:02:31;;;;;;;18.35;13.85;;;332.90;2329.60;;;;;;5155480;27;20091;-58
2022/11/17 00:04:56;;;;;;;22.52;16.92;;;333.10;2329.60;;;;;;5155486;27;20472;-57
2022/11/17 00:07:22;;;;;;;24.17;17.02;;;333.10;2329.60;;;;;;5136596;27;20121;-57
2022/11/17 00:09:48;;;;;;;33.63;23.60;;;333.10;2329.60;;;;;;5155143;27;20500;-58
2022/11/17 00:14:58;;;;;;;36.97;29.92;;;333.00;2329.60;;;;;;5155648;27;20110;-58
2022/11/17 00:17:23;;;;;;;31.73;24.48;;;332.90;2329.60;;;;;;5155672;27;20460;-58
2022/11/17 00:22:33;;;;;;;24.83;19.05;;;333.10;2329.60;;;;;;5155516;27;20461;-57
2022/11/17 00:24:59;;;;;;;22.42;17.95;;;333.10;2329.60;;;;;;5155306;27;20125;-57
2022/11/17 00:27:25;;;;;;;25.00;18.73;;;333.10;2329.60;;;;;;5155583;27;20101;-58
2022/11/17 00:29:51;;;;;;;24.08;16.63;;;333.20;2329.60;;;;;;5155056;27;20380;-57
2022/11/17 00:35:03;;;;;;;23.38;17.50;;;333.30;2329.60;;;;;;5155136;27;20038;-58
2022/11/17 00:37:34;;;;;;;24.38;14.77;;;333.30;2329.60;;;;;;5155010;27;20030;-58
2022/11/17 00:40:00;;;;;;;21.20;17.20;;;333.30;2329.60;;;;;;5154527;27;20038;-58
2022/11/17 00:42:25;;;;;;;18.10;15.40;;;333.30;2329.60;;;;;;5154967;27;20031;-57
2022/11/17 00:44:51;;;;;;;26.83;20.95;;;333.30;2329.60;;;;;;5154621;27;20033;-57
2022/11/17 00:47:17;;;;;;;19.52;14.68;;;333.30;2329.60;;;;;;5154781;27;20455;-57
2022/11/17 00:49:42;;;;;;;30.35;23.50;;;333.20;2278.40;;;;;;5154634;27;20075;-57
2022/11/17 00:52:08;;;;;;;17.30;14.05;;;333.20;2329.60;;;;;;5153628;27;20026;-59
2022/11/17 00:54:34;;;;;;;17.02;12.90;;;333.20;2329.60;;;;;;5154585;27;20098;-56
2022/11/17 00:57:00;;;;;;;24.38;17.35;;;333.30;2329.60;;;;;;5135485;27;20068;-56
2022/11/17 00:59:28;;;;;;;29.88;18.33;;;333.30;2329.60;;;;;;5154935;27;20031;-57
2022/11/17 01:01:54;;;;;;;37.35;24.75;;;333.40;2329.60;;;;;;5154694;27;20015;-56
2022/11/17 01:04:19;;;;;;;28.52;19.80;;;333.20;2329.60;;;;;;5154287;27;20034;-56
2022/11/17 01:06:47;;;;;;;45.03;33.40;;;333.20;2329.60;;;;;;5154496;27;20114;-58
2022/11/17 01:09:19;;;;;;;20.65;14.73;;;333.30;2329.60;;;;;;5154495;27;20030;-54
2022/11/17 01:11:47;;;;;;;23.73;15.10;;;333.20;2329.60;;;;;;5154391;27;20468;-55
2022/11/17 01:14:16;;;;;;;21.63;15.35;;;333.20;2329.60;;;;;;5154493;27;20027;-56
2022/11/17 01:16:43;;;;;;;139.07;72.60;;;333.20;2329.60;;;;;;5154074;27;20058;-56
2022/11/17 01:19:11;;;;;;;64.57;32.72;;;333.20;2329.60;;;;;;5153940;27;20031;-57
2022/11/17 01:21:36;;;;;;;13.18;8.88;;;333.30;2329.60;;;;;;5154151;27;20505;-59
2022/11/17 01:24:02;;;;;;;44.47;24.90;;;333.30;2329.60;;;;;;5154083;27;20026;-56
2022/11/17 01:26:31;;;;;;;30.42;18.38;;;333.20;2329.60;;;;;;5154297;27;20066;-57
2022/11/17 01:28:58;;;;;;;27.63;16.30;;;333.20;2329.60;;;;;;5154120;27;20015;-58
2022/11/17 01:31:30;;;;;;;14.57;9.00;;;333.20;2329.60;;;;;;5153632;27;20042;-58
2022/11/17 01:33:56;;;;;;;11.63;6.93;;;333.20;2329.60;;;;;;5153912;27;20019;-56
2022/11/17 01:36:29;;;;;;;27.77;13.80;;;333.20;2329.60;;;;;;5153658;27;20023;-55
2022/11/17 01:38:54;;;;;;;123.80;59.03;;;333.20;2329.60;;;;;;5153963;27;20046;-61
2022/11/17 01:41:25;;;;;;;15.25;9.98;;;333.10;2329.60;;;;;;5153761;27;20774;-54
2022/11/17 01:43:54;;;;;;;6.78;4.88;;;333.10;2329.60;;;;;;5153334;27;20450;-56
2022/11/17 01:46:26;;;;;;;5.82;4.20;;;333.10;2329.60;;;;;;5140756;27;20122;-56
2022/11/17 01:48:57;;;;;;;6.75;4.63;;;333.00;2329.60;;;;;;5132473;27;20015;-56
2022/11/17 01:51:23;;;;;;;4.95;3.75;;;333.00;2329.60;;;;;;5132837;27;20110;-56
2022/11/17 01:53:50;;;;;;;10.70;7.22;;;333.00;2329.60;;;;;;5132752;27;20023;-56
2022/11/17 01:56:23;;;;;;;8.63;4.30;;;332.90;2329.60;;;;;;5132802;27;20023;-56
2022/11/17 01:58:53;;;;;;;;;;;332.90;1971.20;;;;;;5133075;27;20026;-59
2022/11/17 02:01:18;;;;;;;9.90;6.22;;;332.90;2329.60;;;;;;5132606;27;19907;-58
2022/11/17 02:03:48;;;;;;;10.68;7.10;;;332.90;2329.60;;;;;;5132491;27;20466;-58
2022/11/17 02:06:36;;;;;;;8.13;5.32;;;332.90;2329.60;;;;;;5132396;27;20066;-59
2022/11/17 02:09:03;;;;;;;7.85;4.20;;;332.90;2329.60;;;;;;5131452;27;20035;-58
2022/11/17 02:11:34;;;;;;;5.53;4.25;;;332.90;2329.60;;;;;;5132430;27;20481;-59
2022/11/17 02:14:02;;;;;;;5.40;4.55;;;332.80;2329.60;;;;;;5132188;27;20465;-58
2022/11/17 02:16:27;;;;;;;9.32;5.35;;;332.80;2329.60;;;;;;5132477;27;20034;-61
2022/11/17 02:18:53;;;;;;;4.78;3.95;;;332.90;2329.60;;;;;;5132337;27;20388;-55
2022/11/17 02:21:41;;;;;;;5.30;4.72;;;332.90;2329.60;;;;;;5132092;27;20027;-55
2022/11/17 02:24:09;;;;;;;32.10;20.58;;;332.90;2329.60;;;;;;5132322;27;20031;-56
2022/11/17 02:26:56;;;;;;;12.73;9.85;;;332.90;2329.60;;;;;;5132051;27;20449;-56
2022/11/17 02:29:38;;;;;;;6.07;4.18;;;332.90;2329.60;;;;;;5132010;27;20541;-56
2022/11/17 02:32:12;;;;;;;7.43;4.70;;;332.80;2329.60;;;;;;5132084;27;20035;-56
2022/11/17 02:35:07;;;;;;;4.88;4.38;;;332.90;2329.60;;;;;;5131735;27;20030;-56
2022/11/17 02:37:44;;;;;;;8.30;5.00;;;332.90;2329.60;;;;;;5120795;27;20038;-56
2022/11/17 02:40:15;;;;;;;14.18;12.40;;;332.80;2329.60;;;;;;5131548;27;20035;-56
2022/11/17 02:46:03;;;;;;;4.57;3.83;;;308.10;2304.00;;;;;;5131977;27;20074;-55
2022/11/17 02:48:36;;;;;;;6.65;4.85;;;308.10;2304.00;;;;;;5131671;27;20098;-56
2022/11/17 02:51:04;;;;;;;5.15;3.95;;;332.80;2329.60;;;;;;5131508;27;20115;-56
2022/11/17 02:53:30;;;;;;;4.20;3.47;;;308.10;2304.00;;;;;;5131647;27;20153;-57
2022/11/17 02:55:59;;;;;;;5.43;4.05;;;332.90;2329.60;;;;;;5131691;27;20492;-55
2022/11/17 02:58:25;;;;;;;7.78;4.97;;;332.90;2329.60;;;;;;5131634;27;20019;-56
2022/11/17 03:01:00;;;;;;;5.70;4.22;;;332.90;2329.60;;;;;;5131543;27;20023;-54
2022/11/17 03:04:07;;;;;;;7.82;5.28;;;332.90;2329.60;;;;;;5131514;27;20023;-54
2022/11/17 03:06:34;;;;;;;6.28;5.47;;;332.80;2329.60;;;;;;5131178;27;20037;-58
2022/11/17 03:09:20;;;;;;;5.00;4.22;;;332.80;2329.60;;;;;;5131132;27;20079;-59
2022/11/17 03:12:04;;;;;;;8.52;6.20;;;332.80;2329.60;;;;;;5131457;27;20434;-58
2022/11/17 03:14:52;;;;;;;13.38;8.02;;;332.80;2329.60;;;;;;5130702;27;20019;-58
2022/11/17 03:17:50;;;;;;;17.20;11.95;;;332.80;2329.60;;;;;;5112365;27;20931;-58
2022/11/17 03:20:24;;;;;;;6.90;5.35;;;332.80;2329.60;;;;;;5131259;27;20023;-58
2022/11/17 03:22:57;;;;;;;7.47;5.50;;;332.80;2329.60;;;;;;5130977;27;20027;-56
2022/11/17 03:25:26;;;;;;;11.82;7.43;;;308.10;2304.00;;;;;;5131196;27;20087;-55
2022/11/17 03:27:56;;;;;;;26.50;15.50;;;308.10;2304.00;;;;;;5130834;27;20031;-55
2022/11/17 03:30:24;;;;;;;7.03;5.38;;;308.10;2304.00;;;;;;5131016;27;20031;-55
2022/11/17 03:32:53;;;;;;;14.45;10.55;;;308.10;2304.00;;;;;;5130923;27;20027;-55
2022/11/17 03:35:23;;;;;;;5.13;3.45;;;308.10;2304.00;;;;;;5130846;27;20030;-56
2022/11/17 03:37:57;;;;;;;6.15;4.93;;;307.90;2304.00;;;;;;5130853;27;20024;-55
2022/11/17 03:40:29;;;;;;;20.10;12.70;;;308.00;2304.00;;;;;;5131060;28;20063;-57
2022/11/17 03:42:58;;;;;;;10.10;6.00;;;307.90;2304.00;;;;;;5131200;28;20122;-56
2022/11/17 03:45:27;;;;;;;6.20;5.25;;;307.90;2304.00;;;;;;5131026;28;20137;-58
2022/11/17 03:48:11;;;;;;;5.25;3.92;;;307.80;2304.00;;;;;;5130820;28;20537;-60
2022/11/17 03:50:44;;;;;;;5.05;4.22;;;307.80;2304.00;;;;;;5130756;28;20066;-64
2022/11/17 03:53:10;;;;;;;4.28;3.25;;;307.80;2304.00;;;;;;5130779;28;20399;-59
2022/11/17 03:55:48;;;;;;;4.57;3.60;;;307.90;2304.00;;;;;;5131096;28;20030;-56
2022/11/17 03:58:17;;;;;;;4.50;3.75;;;307.90;2304.00;;;;;;5130888;28;20477;-63
2022/11/17 04:00:45;;;;;;;7.38;4.10;;;307.80;2304.00;;;;;;5130717;28;20111;-60
2022/11/17 04:03:11;;;;;;;4.20;3.42;;;307.70;2304.00;;;;;;5130637;28;20019;-63
2022/11/17 04:05:36;;;;;;;4.00;3.38;;;307.80;2304.00;;;;;;5130678;28;20499;-63
2022/11/17 04:08:02;;;;;;;4.85;3.95;;;307.70;2304.00;;;;;;5130745;28;20023;-63
2022/11/17 04:10:28;;;;;;;5.60;4.82;;;307.70;2304.00;;;;;;5130673;28;20544;-58
2022/11/17 04:15:57;;;;;;;5.63;3.80;;;307.70;2304.00;;;;;;5130964;28;20084;-56
2022/11/17 04:18:23;;;;;;;5.60;3.63;;;307.70;2304.00;;;;;;5130595;28;20019;-56
2022/11/17 04:20:51;;;;;;;6.00;4.80;;;307.60;2304.00;;;;;;5130373;28;20027;-56
2022/11/17 04:23:17;;;;;;;6.40;5.25;;;307.60;2304.00;;;;;;5130678;28;20034;-55
2022/11/17 04:28:37;;;;;;;18.48;16.77;;;307.60;2304.00;;;;;;5134478;27;20107;-56
2022/11/17 04:31:11;;;;;;;6.78;6.07;;;307.60;2304.00;;;;;;5134417;27;20024;-56
2022/11/17 04:33:39;;;;;;;6.15;5.15;;;307.60;2304.00;;;;;;5134358;27;20129;-56
2022/11/17 04:36:06;;;;;;;7.35;6.65;;;307.40;2304.00;;;;;;5134396;27;20027;-56
2022/11/17 04:38:32;;;;;;;7.15;5.43;;;307.40;2304.00;;;;;;5133966;27;20075;-57
2022/11/17 04:43:51;;;;;;;10.20;9.20;;;307.40;2304.00;;;;;;5134028;27;20520;-56
2022/11/17 04:46:18;;;;;;;7.90;6.35;;;307.30;2304.00;;;;;;5134290;27;20365;-55
2022/11/17 04:48:44;;;;;;;6.63;5.00;;;307.30;2304.00;;;;;;5134188;27;20027;-56
2022/11/17 04:51:10;;;;;;;7.15;5.43;;;307.30;2304.00;;;;;;5133854;27;20019;-56
2022/11/17 04:53:36;;;;;;;6.95;5.53;;;307.30;2304.00;;;;;;5133945;27;20023;-56
2022/11/17 04:56:02;;;;;;;9.43;8.18;;;307.30;2304.00;;;;;;5148554;27;20079;-57
2022/11/17 04:58:28;;;;;;;8.38;6.25;;;307.20;2304.00;;;;;;5154881;27;20023;-56
2022/11/17 05:00:54;;;;;;;7.35;5.75;;;282.50;2278.40;;;;;;5154516;27;20067;-58
2022/11/17 05:03:21;;;;;;;8.52;6.57;;;282.50;2278.40;;;;;;5154354;27;20062;-56
2022/11/17 05:05:47;;;;;;;8.18;6.22;;;282.40;2278.40;;;;;;5154320;27;20084;-56
2022/11/17 05:08:13;;;;;;;12.35;9.70;;;282.50;2278.40;;;;;;5154045;27;20598;-56
2022/11/17 05:13:25;;;;;;;10.35;6.47;;;307.20;2304.00;;;;;;5154490;27;20071;-56
2022/11/17 05:18:39;;;;;;;8.50;6.97;;;307.30;2304.00;;;;;;5154430;27;20211;-56
2022/11/17 05:21:05;;;;;;;9.15;7.63;;;307.50;2304.00;;;;;;5154435;27;20135;-56
2022/11/17 05:26:16;;;;;;;10.23;9.18;;;307.50;2304.00;;;;;;5154382;27;20503;-56
2022/11/17 05:28:42;;;;;;;11.30;8.00;;;307.50;2304.00;;;;;;5153955;27;20015;-56
2022/11/17 05:31:08;;;;;;;10.00;8.30;;;307.30;2022.40;;;;;;5153781;27;20026;-57
2022/11/17 05:33:34;;;;;;;8.60;7.70;;;307.40;2304.00;;;;;;5153888;27;20457;-56
2022/11/17 05:36:00;;;;;;;9.93;7.90;;;307.40;2304.00;;;;;;5153827;27;20098;-56
2022/11/17 05:38:25;;;;;;;9.32;7.63;;;307.40;2304.00;;;;;;5153505;27;20038;-56
2022/11/17 05:40:51;;;;;;;8.70;7.25;;;307.30;2176.00;;;;;;5153705;27;20030;-56
2022/11/17 05:43:17;;;;;;;12.27;8.98;;;307.40;2304.00;;;;;;5153708;27;20082;-56
2022/11/17 05:45:44;;;;;;;10.68;8.82;;;307.50;2304.00;;;;;;5153660;27;20422;-56
2022/11/17 05:48:10;;;;;;;9.70;8.13;;;307.40;2304.00;;;;;;5153303;27;20018;-56
2022/11/17 05:50:36;;;;;;;20.50;17.02;;;307.40;2176.00;;;;;;5153623;27;20487;-56
2022/11/17 05:53:02;;;;;;;13.60;9.98;;;307.40;2304.00;;;;;;5153532;27;20425;-56
2022/11/17 05:55:28;;;;;;;12.05;8.95;;;307.40;2304.00;;;;;;5153366;27;20043;-56
2022/11/17 05:57:57;;;;;;;9.77;8.30;;;307.30;2304.00;;;;;;5153460;27;20023;-56
2022/11/17 06:00:23;;;;;;;9.15;7.70;;;307.30;2304.00;;;;;;5153399;27;20369;-55
2022/11/17 06:03:04;;;;;;;10.77;7.15;;;307.30;2073.60;;;;;;5153161;27;20030;-64
2022/11/17 06:05:29;;;;;;;12.77;9.60;;;307.30;2304.00;;;;;;5153019;27;20034;-56
2022/11/17 06:07:57;;;;;;;15.10;11.15;;;307.30;2304.00;;;;;;5153433;27;20015;-64
2022/11/17 06:10:24;;;;;;;24.42;18.80;;;307.30;2304.00;;;;;;5152946;27;20548;-62
2022/11/17 06:12:49;;;;;;;14.90;11.85;;;307.30;2304.00;;;;;;5152972;27;20076;-62
2022/11/17 06:15:15;;;;;;;10.50;9.18;;;307.30;2304.00;;;;;;5153198;27;20050;-57
2022/11/17 06:18:21;;;;;;;29.38;21.90;;;307.50;2304.00;;;;;;5152868;27;20027;-60
2022/11/17 06:20:50;;;;;;;23.52;17.50;;;307.40;2304.00;;;;;;5152769;27;20480;-58
2022/11/17 06:23:18;;;;;;;14.63;10.20;;;307.60;2304.00;;;;;;5153001;27;20524;-58
2022/11/17 06:25:44;;;;;;;16.05;12.98;;;307.60;2304.00;;;;;;5152799;27;20038;-61
2022/11/17 06:28:13;;;;;;;11.95;10.32;;;307.60;2304.00;;;;;;5152655;27;20022;-58
2022/11/17 06:30:41;;;;;;;17.73;15.82;;;307.80;2304.00;;;;;;5152602;27;20033;-66
2022/11/17 06:33:13;;;;;;;14.07;10.15;;;307.70;2304.00;;;;;;5152988;27;20026;-59
2022/11/17 06:35:41;;;;;;;17.57;15.77;;;307.80;2304.00;;;;;;5152562;27;20026;-59
2022/11/17 06:38:07;;;;;;;19.13;17.30;;;307.80;2304.00;;;;;;5152660;27;20075;-58
2022/11/17 06:40:33;;;;;;;12.18;10.88;;;308.10;2304.00;;;;;;5152519;27;20469;-58
2022/11/17 06:43:08;;;;;;;16.45;14.85;;;307.90;2304.00;;;;;;5152206;27;20430;-59
2022/11/17 06:45:42;;;;;;;14.00;12.52;;;308.10;2304.00;;;;;;5152785;27;20086;-59
2022/11/17 06:48:09;;;;;;;11.35;10.10;;;332.90;2329.60;;;;;;5152639;27;20026;-64
2022/11/17 06:50:35;;;;;;;22.27;20.35;;;332.90;2329.60;;;;;;5151619;27;20688;-59
2022/11/17 06:53:03;;;;;;;11.80;10.60;;;332.90;2329.60;;;;;;5152144;27;20074;-68
2022/11/17 06:55:29;;;;;;;18.23;15.70;;;333.00;2329.60;;;;;;5152246;27;20035;-66
2022/11/17 06:58:05;;;;;;;20.20;18.30;;;333.00;2329.60;;;;;;5133506;27;20030;-60
2022/11/17 07:00:32;;;;;;;15.95;14.35;;;333.10;2329.60;;;;;;5152120;27;20079;-59
2022/11/17 07:03:02;;;;;;;11.98;10.07;;;333.20;2329.60;;;;;;5152382;27;20025;-67
2022/11/17 07:05:32;;;;;;;13.20;9.60;;;333.30;2329.60;;;;;;5152212;27;20113;-59
2022/11/17 07:08:04;;;;;;;10.75;9.73;;;333.50;2329.60;;;;;;5152055;27;20033;-60
2022/11/17 07:10:32;;;;;;;13.13;11.73;;;333.40;2329.60;;;;;;5151850;27;20353;-61
2022/11/17 07:12:58;;;;;;;11.68;9.85;;;333.50;2329.60;;;;;;5152296;27;20022;-60
2022/11/17 07:15:24;;;;;;;23.70;21.50;;;333.50;2329.60;;;;;;5152234;27;20032;-59
2022/11/17 07:17:50;;;;;;;15.25;13.48;;;333.60;2329.60;;;;;;5151832;27;20042;-62
2022/11/17 07:20:17;;;;;;;58.13;41.75;;;333.60;2329.60;;;;;;5151956;27;20022;-60
2022/11/17 07:22:43;;;;;;;47.33;24.95;;;333.60;2329.60;;;;;;5151649;27;20481;-59
2022/11/17 07:25:09;;;;;;;22.05;14.10;;;333.70;2329.60;;;;;;5151515;27;20034;-60
2022/11/17 07:27:36;;;;;;;19.58;16.92;;;358.50;2329.60;;;;;;5151978;27;20090;-59
2022/11/17 07:30:06;;;;;;;17.60;14.35;;;333.70;2329.60;;;;;;5151637;27;20088;-59
2022/11/17 07:32:33;;;;;;;18.35;14.75;;;333.70;2329.60;;;;;;5151768;27;20102;-62
2022/11/17 07:35:00;;;;;;;21.10;18.88;;;333.70;2329.60;;;;;;5151485;27;20483;-62
2022/11/17 07:37:27;;;;;;;23.42;18.73;;;333.70;2329.60;;;;;;5151919;27;20071;-62
2022/11/17 07:39:52;;;;;;;22.48;18.70;;;358.80;2329.60;;;;;;5151582;27;20404;-61
2022/11/17 07:42:18;;;;;;;30.30;24.50;;;333.70;2329.60;;;;;;5151614;27;20042;-62
2022/11/17 07:44:44;;;;;;;27.08;21.90;;;358.50;2329.60;;;;;;5151562;27;20105;-62
2022/11/17 07:47:10;;;;;;;36.05;27.00;;;358.50;2329.60;;;;;;5151539;27;20026;-60
2022/11/17 07:49:35;;;;;;;33.78;27.25;;;358.60;2329.60;;;;;;5151768;27;20473;-58
2022/11/17 07:52:01;;;;;;;29.05;24.88;;;358.70;2329.60;;;;;;5151381;27;20033;-61
2022/11/17 07:54:27;;;;;;;45.10;36.17;;;358.70;2329.60;;;;;;5151595;27;20067;-62
2022/11/17 07:56:53;;;;;;;43.67;35.47;;;359.00;2329.60;;;;;;5151531;27;20063;-56
2022/11/17 07:59:20;;;;;;;35.42;28.50;;;359.00;2329.60;;;;;;5151334;27;20027;-56
2022/11/17 08:01:46;;;;;;;40.70;32.22;;;359.30;2329.60;;;;;;5154838;27;20357;-60
2022/11/17 08:04:11;;;;;;;41.65;33.40;;;384.20;2329.60;;;;;;5155484;27;20090;-62
2022/11/17 08:06:37;;;;;;;31.08;25.65;;;384.40;2329.60;;;;;;5155549;27;20038;-60
2022/11/17 08:09:05;;;;;;;24.92;21.88;;;384.10;2329.60;;;;;;5155531;27;20080;-60
2022/11/17 08:11:30;;;;;;;27.00;21.92;;;384.20;2329.60;;;;;;5155368;27;20030;-58
2022/11/17 08:13:57;;;;;;;38.92;20.95;;;384.40;2329.60;;;;;;5155637;27;20019;-58
2022/11/17 08:16:24;;;;;;;27.42;22.73;;;384.60;2329.60;;;;;;5145207;27;20111;-60
2022/11/17 08:18:50;;;;;;;30.27;24.77;;;384.50;2329.60;;;;;;5142467;27;20027;-58
2022/11/17 08:21:15;;;;;;;27.25;23.88;;;384.50;2329.60;;;;;;5145304;27;20101;-62
2022/11/17 08:23:41;;;;;;;25.58;22.20;;;384.00;2329.60;;;;;;5155328;27;20022;-62
2022/11/17 08:26:09;;;;;;;26.33;20.75;;;384.50;2329.60;;;;;;5155126;27;20391;-60
2022/11/17 08:28:35;;;;;;;26.95;23.73;;;384.70;2329.60;;;;;;5155416;27;20027;-60
2022/11/17 08:31:03;;;;;;;70.88;25.85;;;409.70;2355.20;;;;;;5155100;27;20029;-61
2022/11/17 08:33:29;;;;;;;60.83;54.63;;;410.20;2355.20;;;;;;5155048;27;20023;-58
2022/11/17 08:36:02;;;;;;;31.48;26.20;;;409.90;2355.20;;;;;;5155009;27;20045;-57
2022/11/17 08:38:28;;;;;;;33.88;27.20;;;409.70;2355.20;;;;;;5154855;27;20468;-56
2022/11/17 08:41:00;;;;;;;36.20;29.80;;;435.30;2355.20;;;;;;5155097;27;20087;-57
2022/11/17 08:43:25;;;;;;;41.28;33.22;;;435.60;2355.20;;;;;;5154911;27;20053;-57
2022/11/17 08:45:51;;;;;;;26.58;23.70;;;436.00;2355.20;;;;;;5154848;27;20035;-61
2022/11/17 08:48:18;;;;;;;22.80;18.27;;;461.50;2380.80;;;;;;5154528;27;20046;-61
2022/11/17 08:50:44;;;;;;;33.63;27.20;;;512.80;2380.80;;;;;;5154872;27;20025;-57
2022/11/17 08:53:13;;;;;;;28.00;24.10;;;512.50;2380.80;;;;;;5154761;27;20027;-61
2022/11/17 08:55:39;;;;;;;49.05;42.45;;;486.90;2380.80;;;;;;5154858;27;20430;-63
2022/11/17 08:58:04;;;;;;;47.60;39.63;;;486.90;2380.80;;;;;;5154658;27;20027;-60
2022/11/17 09:00:30;;;;;;;36.50;30.35;;;486.50;2380.80;;;;;;5154503;27;20023;-59
2022/11/17 09:02:56;;;;;;;35.42;29.63;;;486.80;2380.80;;;;;;5154759;27;20444;-56
2022/11/17 09:05:23;;;;;;;38.15;33.05;;;461.70;2380.80;;;;;;5154131;27;20035;-61
2022/11/17 09:07:49;;;;;;;34.25;29.73;;;461.70;2380.80;;;;;;5154236;27;20015;-62
2022/11/17 09:10:15;;;;;;;35.97;31.45;;;461.70;2380.80;;;;;;5154307;27;20069;-61
2022/11/17 09:12:41;;;;;;;27.85;24.85;;;461.40;2380.80;;;;;;5153274;27;20476;-61
2022/11/17 09:15:07;;;;;;;44.10;36.30;;;460.90;2380.80;;;;;;5154511;27;20028;-61
2022/11/17 09:17:33;;;;;;;39.05;32.38;;;461.10;2380.80;;;;;;5154275;27;20422;-60
2022/11/17 09:19:58;;;;;;;43.67;36.50;;;435.60;2355.20;;;;;;5153996;27;20027;-55
2022/11/17 09:22:24;;;;;;;43.50;36.80;;;435.80;2355.20;;;;;;5154084;27;20022;-57
2022/11/17 09:24:50;;;;;;;31.63;25.90;;;435.90;2355.20;;;;;;5151340;27;20058;-57
2022/11/17 09:27:15;;;;;;;33.97;28.38;;;435.40;2355.20;;;;;;5133648;27;20023;-57
2022/11/17 09:29:41;;;;;;;38.25;27.55;;;435.30;2355.20;;;;;;5133187;27;20107;-56
2022/11/17 09:32:07;;;;;;;28.45;24.17;;;410.50;2355.20;;;;;;5133380;27;20031;-57
2022/11/17 09:34:32;;;;;;;23.95;20.15;;;410.30;2355.20;;;;;;5133022;27;20023;-60
2022/11/17 09:36:58;;;;;;;34.72;26.08;;;435.70;2355.20;;;;;;5133144;27;20030;-58
2022/11/17 09:39:24;;;;;;;32.22;27.50;;;435.90;2355.20;;;;;;5133167;27;20027;-61
2022/11/17 09:41:52;;;;;;;37.97;32.17;;;435.20;2355.20;;;;;;5133187;27;20080;-60
2022/11/17 09:44:38;;;;;;;58.08;46.05;;;435.50;2355.20;;;;;;5132907;27;20075;-61
2022/11/17 09:47:17;;;;;;;53.58;41.42;;;435.20;2355.20;;;;;;5132924;27;20043;-60
2022/11/17 09:49:54;;;;;;;35.45;28.67;;;435.20;2355.20;;;;;;5132935;27;20020;-62
2022/11/17 09:52:21;;;;;;;47.35;33.75;;;410.00;2355.20;;;;;;5132869;27;20023;-59
2022/11/17 09:54:53;;;;;;;45.25;32.33;;;410.20;2355.20;;;;;;5132865;27;20068;-61
2022/11/17 09:57:28;;;;;;;40.78;32.95;;;410.50;2355.20;;;;;;5132605;27;20473;-61
2022/11/17 10:00:26;;;;;;;25.52;19.65;;;410.40;2355.20;;;;;;5132839;27;20098;-60
2022/11/17 10:02:54;;;;;;;25.90;21.10;;;435.20;2355.20;;;;;;5131750;27;20031;-61
2022/11/17 10:05:29;;;;;;;46.45;35.25;;;410.20;2355.20;;;;;;5132215;27;20027;-57
2022/11/17 10:08:03;;;;;;;25.08;18.90;;;410.30;2355.20;;;;;;5132523;27;20025;-62
2022/11/17 10:10:38;;;;;;;22.55;16.80;;;435.20;2355.20;;;;;;5132457;27;20070;-57
2022/11/17 10:13:06;;;;;;;21.67;18.67;;;435.40;2355.20;;;;;;5132442;27;20072;-61
2022/11/17 10:15:42;;;;;;;24.02;21.42;;;410.50;2355.20;;;;;;5132395;27;20031;-61
2022/11/17 10:18:12;;;;;;;25.30;18.15;;;435.40;2355.20;;;;;;5132710;27;20019;-61
2022/11/17 10:20:38;;;;;;;39.38;26.50;;;435.60;2355.20;;;;;;5132398;27;20023;-62
2022/11/17 10:23:06;;;;;;;30.15;23.13;;;435.90;2355.20;;;;;;5132112;27;20027;-58
2022/11/17 10:25:37;;;;;;;21.33;14.93;;;435.80;2355.20;;;;;;5131145;27;20042;-57
2022/11/17 10:28:07;;;;;;;18.17;15.88;;;435.30;2355.20;;;;;;5132033;27;20027;-57
2022/11/17 10:30:34;;;;;;;35.50;29.88;;;435.60;2355.20;;;;;;5132029;27;20020;-57
2022/11/17 10:33:01;;;;;;;29.08;23.73;;;436.10;2355.20;;;;;;5131985;27;20030;-57
2022/11/17 10:35:31;;;;;;;29.58;25.00;;;435.60;2355.20;;;;;;5132193;27;20030;-62
2022/11/17 10:38:15;;;;;;;25.65;19.00;;;435.90;2355.20;;;;;;5131863;27;20500;-61
2022/11/17 10:40:41;;;;;;;28.30;20.58;;;460.80;2380.80;;;;;;5131823;27;20111;-62
2022/11/17 10:43:13;;;;;;;43.30;30.05;;;460.90;2380.80;;;;;;5131681;27;20621;-61
2022/11/17 10:45:43;;;;;;;59.70;41.35;;;460.90;2380.80;;;;;;5131823;27;20114;-61
2022/11/17 10:48:27;;;;;;;48.33;36.72;;;435.60;2355.20;;;;;;5131652;27;20418;-62
2022/11/17 10:50:59;;;;;;;;;;;435.30;2355.20;;;;;;5131881;27;20079;-58
2022/11/17 10:53:35;;;;;;;38.20;28.70;;;435.30;2355.20;;;;;;5131905;27;19903;-56
2022/11/17 10:56:18;;;;;;;35.38;25.45;;;410.10;2355.20;;;;;;5131439;27;20046;-58
2022/11/17 10:59:15;;;;;;;29.45;24.23;;;410.00;2355.20;;;;;;5131536;27;20117;-57
2022/11/17 11:01:46;;;;;;;30.17;21.88;;;410.30;2355.20;;;;;;5130102;27;20402;-58
2022/11/17 11:04:38;;;;;;;46.80;32.13;;;409.80;2355.20;;;;;;5131429;27;20015;-61
2022/11/17 11:07:30;;;;;;;28.30;21.27;;;409.70;2355.20;;;;;;5127628;27;20050;-62
2022/11/17 11:10:28;;;;;;;27.70;18.02;;;409.70;2355.20;;;;;;5127690;27;20035;-61
2022/11/17 11:12:59;;;;;;;34.42;27.60;;;409.60;2355.20;;;;;;5131310;27;20027;-62
2022/11/17 11:15:30;;;;;;;49.95;34.97;;;384.90;2329.60;;;;;;5131271;27;20023;-63
2022/11/17 11:17:56;;;;;;;22.55;16.58;;;409.90;2355.20;;;;;;5131439;27;20033;-61
2022/11/17 11:20:38;;;;;;;24.77;18.42;;;410.00;2355.20;;;;;;5131175;27;20101;-61
2022/11/17 11:23:41;;;;;;;17.92;13.07;;;410.20;2355.20;;;;;;5131139;27;20054;-62
2022/11/17 11:26:28;;;;;;;25.17;19.05;;;410.00;2355.20;;;;;;5131081;27;20473;-62
2022/11/17 11:28:57;;;;;;;14.43;10.63;;;409.70;2355.20;;;;;;5131411;27;20030;-62
2022/11/17 11:31:38;;;;;;;20.90;13.98;;;409.70;2355.20;;;;;;5130989;27;20080;-61
2022/11/17 11:34:36;;;;;;;19.42;13.75;;;409.70;2355.20;;;;;;5131156;28;20019;-60
2022/11/17 11:37:09;;;;;;;23.13;14.68;;;409.90;2355.20;;;;;;5047323;28;20040;-61
2022/11/17 11:40:13;;;;;;;21.98;19.02;;;410.50;2355.20;;;;;;5047778;28;20044;-61
2022/11/17 11:42:55;;;;;;;10.73;7.75;;;410.50;2355.20;;;;;;5047402;28;20102;-61
2022/11/17 11:46:00;;;;;;;10.65;7.25;;;435.20;2329.60;;;;;;5047550;28;20469;-60
2022/11/17 11:48:32;;;;;;;13.20;9.07;;;435.80;2355.20;;;;;;5048030;28;20127;-61
2022/11/17 11:51:01;;;;;;;13.60;10.75;;;435.90;2278.40;;;;;;5047559;28;20043;-60
2022/11/17 11:53:39;;;;;;;20.58;14.52;;;435.90;2329.60;;;;;;5047694;28;20132;-59
2022/11/17 11:56:41;;;;;;;55.92;33.88;;;436.10;2304.00;;;;;;5047592;28;20028;-61
2022/11/17 11:59:18;;;;;;;32.47;20.73;;;436.10;2355.20;;;;;;5007755;28;20092;-60
2022/11/17 12:01:50;;;;;;;21.33;14.15;;;460.80;2278.40;;;;;;5007965;28;20117;-64
2022/11/17 12:04:47;;;;;;;14.82;9.02;;;435.90;2201.60;;;;;;5007940;28;20041;-61
2022/11/17 12:07:16;;;;;;;10.50;7.72;;;460.80;2201.60;;;;;;5007761;28;20082;-61
2022/11/17 12:09:41;;;;;;;14.55;8.63;;;435.80;2201.60;;;;;;5007616;28;20037;-56
2022/11/17 12:12:16;;;;;;;22.75;12.82;;;435.80;2201.60;;;;;;5025012;28;20505;-60
2022/11/17 12:15:17;;;;;;;33.75;19.73;;;435.60;2304.00;;;;;;5067341;28;20039;-57
2022/11/17 12:17:54;;;;;;;19.40;11.13;;;435.30;2355.20;;;;;;5067357;28;20029;-62
2022/11/17 12:20:39;;;;;;;14.45;10.73;;;435.30;2355.20;;;;;;5067311;28;20028;-60
2022/11/17 12:23:26;;;;;;;29.80;18.98;;;435.30;2355.20;;;;;;5067569;28;20101;-61
2022/11/17 12:25:54;;;;;;;16.83;10.88;;;435.20;2355.20;;;;;;5067090;28;20087;-61
2022/11/17 12:28:40;;;;;;;18.92;12.30;;;410.30;2355.20;;;;;;5067227;28;20032;-58
2022/11/17 12:31:31;;;;;;;18.35;12.60;;;410.40;2355.20;;;;;;5067163;28;20116;-60
2022/11/17 12:34:00;;;;;;;18.40;12.48;;;410.50;2355.20;;;;;;5080920;28;20030;-59
2022/11/17 12:36:32;;;;;;;34.78;23.00;;;410.50;2355.20;;;;;;5130445;28;20042;-56
2022/11/17 12:39:03;;;;;;;21.75;14.30;;;410.50;2355.20;;;;;;5130485;28;20027;-61
2022/11/17 12:42:05;;;;;;;42.15;23.60;;;410.10;2355.20;;;;;;5130208;28;20035;-60
2022/11/17 12:44:37;;;;;;;37.97;25.05;;;410.10;2355.20;;;;;;5105428;28;20039;-58
2022/11/17 12:47:14;;;;;;;33.70;19.50;;;410.20;2355.20;;;;;;5130520;27;20035;-59
2022/11/17 12:50:18;;;;;;;42.00;22.10;;;410.20;2355.20;;;;;;5133765;27;20034;-60
2022/11/17 12:53:10;;;;;;;24.90;17.17;;;410.20;2355.20;;;;;;5050637;28;20094;-57